createdAt,value
2023-02-02T00:05:01.424Z,8.25
2023-02-02T00:12:03.073Z,8.29
2023-02-02T00:19:18.502Z,8.37
2023-02-02T00:26:20.232Z,8.30
2023-02-02T00:33:21.764Z,8.30
2023-02-02T00:40:23.341Z,8.36
2023-02-02T00:47:25.263Z,8.32
2023-02-02T00:54:27.136Z,8.41
2023-02-02T01:01:28.774Z,8.44
2023-02-02T01:08:30.389Z,8.34
2023-02-02T01:15:31.938Z,8.62
2023-02-02T01:22:38.431Z,8.70
2023-02-02T01:29:40.002Z,8.65
2023-02-02T01:36:41.580Z,8.36
2023-02-02T01:43:43.155Z,8.41
2023-02-02T01:50:44.729Z,8.47
2023-02-02T01:58:11.136Z,8.54
2023-02-02T02:05:12.644Z,8.43
2023-02-02T02:12:15.481Z,8.33
2023-02-02T02:19:35.744Z,8.41
2023-02-02T02:26:54.438Z,8.70
2023-02-02T02:34:16.031Z,8.58
2023-02-02T02:41:20.808Z,8.66
2023-02-02T02:48:22.453Z,8.67
2023-02-02T02:55:25.050Z,8.72
2023-02-02T03:02:41.731Z,8.91
2023-02-02T03:09:43.277Z,8.75
2023-02-02T03:16:44.796Z,8.88
2023-02-02T03:23:46.315Z,8.87
2023-02-02T03:30:47.911Z,8.92
2023-02-02T03:37:49.541Z,8.79
2023-02-02T03:44:51.119Z,8.85
2023-02-02T03:51:52.651Z,8.84
2023-02-02T03:58:54.169Z,8.77
2023-02-02T04:05:55.683Z,8.93
2023-02-02T04:12:57.323Z,8.87
2023-02-02T04:19:59.252Z,8.94
2023-02-02T04:27:00.935Z,8.64
2023-02-02T04:34:02.642Z,9.15
2023-02-02T04:41:08.150Z,9.18
2023-02-02T04:48:09.807Z,9.09
2023-02-02T04:55:11.602Z,9.00
2023-02-02T05:02:13.153Z,9.06
2023-02-02T05:09:15.404Z,9.05
2023-02-02T05:16:18.106Z,9.05
2023-02-02T05:23:19.893Z,8.97
2023-02-02T05:30:21.642Z,9.00
2023-02-02T05:37:23.279Z,9.05
2023-02-02T05:44:24.945Z,9.05
2023-02-02T05:51:29.837Z,8.83
2023-02-02T05:58:31.504Z,9.02
2023-02-02T06:05:33.463Z,9.00
2023-02-02T06:12:35.000Z,8.84
2023-02-02T06:19:36.556Z,8.97
2023-02-02T06:26:38.167Z,8.85
2023-02-02T06:33:40.139Z,8.84
2023-02-02T06:40:41.687Z,9.03
2023-02-02T06:47:43.403Z,8.90
2023-02-02T06:54:44.988Z,8.87
2023-02-02T07:01:51.561Z,8.67
2023-02-02T07:09:01.774Z,8.97
2023-02-02T07:16:05.032Z,8.86
2023-02-02T07:23:06.719Z,8.78
2023-02-02T07:30:09.193Z,9.02
2023-02-02T07:37:10.921Z,9.15
2023-02-02T07:44:15.337Z,9.04
2023-02-02T07:51:18.133Z,9.05
2023-02-02T07:58:19.741Z,8.92
2023-02-02T08:05:22.789Z,8.79
2023-02-02T08:12:26.435Z,8.75
2023-02-02T08:19:28.053Z,8.96
2023-02-02T08:26:30.191Z,8.96
2023-02-02T08:33:31.830Z,9.04
2023-02-02T08:40:33.545Z,9.25
2023-02-02T08:47:35.235Z,9.23
2023-02-02T08:54:37.020Z,9.41
2023-02-02T09:01:38.582Z,9.37
2023-02-02T09:08:40.579Z,9.52
2023-02-02T09:15:42.541Z,9.83
2023-02-02T09:22:47.385Z,9.79
2023-02-02T09:29:49.272Z,9.70
2023-02-02T09:36:51.984Z,9.89
2023-02-02T09:44:26.431Z,9.88
2023-02-02T09:51:31.416Z,10.05
2023-02-02T09:58:48.423Z,10.01
2023-02-02T10:05:57.933Z,9.95
2023-02-02T10:13:04.775Z,9.98
2023-02-02T10:20:40.512Z,9.70
2023-02-02T10:27:46.147Z,9.93
2023-02-02T10:35:11.087Z,9.66
2023-02-02T10:42:31.154Z,9.88
2023-02-02T10:49:34.117Z,10.01
2023-02-02T10:56:38.013Z,10.07
2023-02-02T11:03:40.180Z,10.23
2023-02-02T11:10:43.608Z,10.33
2023-02-02T11:17:45.153Z,10.29
2023-02-02T11:24:47.799Z,10.66
2023-02-02T11:31:49.342Z,10.63
2023-02-02T11:39:16.269Z,10.51
2023-02-02T11:46:23.606Z,10.57
2023-02-02T11:53:36.685Z,10.41
2023-02-02T12:00:51.731Z,10.44
2023-02-02T12:07:59.846Z,10.55
2023-02-02T12:15:20.185Z,10.18
2023-02-02T12:22:51.065Z,10.79
2023-02-02T12:30:11.418Z,10.90
2023-02-02T12:37:47.508Z,9.97
2023-02-02T12:44:56.220Z,10.18
2023-02-02T12:52:03.374Z,10.10
2023-02-02T12:59:31.153Z,9.63
2023-02-02T13:06:52.347Z,9.93
2023-02-02T13:13:53.865Z,9.91
2023-02-02T13:21:00.764Z,10.22
2023-02-02T13:28:02.429Z,9.96
2023-02-02T13:35:22.022Z,9.93
2023-02-02T13:42:55.919Z,10.26
2023-02-02T13:50:03.921Z,10.25
2023-02-02T13:57:11.303Z,10.06
2023-02-02T14:04:26.470Z,10.18
2023-02-02T14:11:30.753Z,9.79
2023-02-02T14:18:56.955Z,9.79
2023-02-02T14:26:06.315Z,9.44
2023-02-02T14:33:37.105Z,9.62
2023-02-02T14:40:49.898Z,9.57
2023-02-02T14:48:07.212Z,9.26
2023-02-02T14:55:27.283Z,9.40
2023-02-02T15:02:29.095Z,9.34
2023-02-02T15:09:37.274Z,9.55
2023-02-02T15:16:38.840Z,9.51
2023-02-02T15:23:42.012Z,9.61
2023-02-02T15:30:44.961Z,9.86
2023-02-02T15:37:49.326Z,9.30
2023-02-02T15:44:50.828Z,9.46
2023-02-02T15:51:53.422Z,9.25
2023-02-02T15:58:56.547Z,9.14
2023-02-02T16:05:58.122Z,9.06
2023-02-02T16:12:59.666Z,9.00
2023-02-02T16:20:13.139Z,8.90
2023-02-02T16:27:19.126Z,8.93
2023-02-02T16:34:38.946Z,8.81
2023-02-02T16:41:40.505Z,8.78
2023-02-02T16:48:45.918Z,8.67
2023-02-02T16:55:50.845Z,8.45
2023-02-02T17:03:06.608Z,8.41
2023-02-02T17:10:17.295Z,8.47
2023-02-02T17:17:18.910Z,8.41
2023-02-02T17:24:20.479Z,8.31
2023-02-02T17:31:22.248Z,8.30
2023-02-02T17:38:24.425Z,8.20
2023-02-02T17:45:34.157Z,8.22
2023-02-02T17:52:38.216Z,8.21
2023-02-02T17:59:39.749Z,8.10
2023-02-02T18:06:41.341Z,8.06
2023-02-02T18:13:43.427Z,8.00
2023-02-02T18:20:46.601Z,7.96
2023-02-02T18:27:50.517Z,7.82
2023-02-02T18:34:55.602Z,7.88
2023-02-02T18:41:57.539Z,7.85
2023-02-02T18:48:59.135Z,7.74
2023-02-02T18:56:05.278Z,7.70
2023-02-02T19:03:06.918Z,7.69
2023-02-02T19:10:08.840Z,7.70
2023-02-02T19:17:24.392Z,7.63
2023-02-02T19:24:26.789Z,7.55
2023-02-02T19:31:28.523Z,7.57
2023-02-02T19:38:30.223Z,7.42
2023-02-02T19:45:32.841Z,7.36
2023-02-02T19:52:34.575Z,7.36
2023-02-02T19:59:36.196Z,7.34
2023-02-02T20:06:52.615Z,7.32
2023-02-02T20:13:59.756Z,7.31
2023-02-02T20:21:01.320Z,7.57
2023-02-02T20:28:05.217Z,7.72
2023-02-02T20:35:37.068Z,7.51
2023-02-02T20:42:38.732Z,7.66
2023-02-02T20:49:40.278Z,7.60
2023-02-02T20:56:41.872Z,7.56
2023-02-02T21:03:43.399Z,7.51
2023-02-02T21:10:44.936Z,7.44
2023-02-02T21:17:46.610Z,7.40
2023-02-02T21:24:48.216Z,7.35
2023-02-02T21:31:49.908Z,7.48
2023-02-02T21:38:51.470Z,7.52
2023-02-02T21:45:53.233Z,7.54
2023-02-02T21:53:21.467Z,7.52
2023-02-02T22:00:28.355Z,7.47
2023-02-02T22:07:30.573Z,7.57
2023-02-02T22:14:34.912Z,7.57
2023-02-02T22:21:36.456Z,7.56
2023-02-02T22:28:39.826Z,7.44
2023-02-02T22:35:41.925Z,7.29
2023-02-02T22:42:43.682Z,7.33
2023-02-02T22:49:45.205Z,7.31
2023-02-02T22:56:46.720Z,7.51
2023-02-02T23:03:49.487Z,7.44
2023-02-02T23:10:51.045Z,7.39
2023-02-02T23:17:53.001Z,7.47
2023-02-02T23:24:54.587Z,7.62
2023-02-02T23:31:56.141Z,7.56
2023-02-02T23:38:57.668Z,7.59
2023-02-02T23:46:00.143Z,7.62
2023-02-02T23:53:01.788Z,7.39
